sensor_id;sensor_type;location;lat;lon;timestamp;P1;durP1;ratioP1;P2;durP2;ratioP2
68995;SDS011;56056;48.990;12.146;2022-08-21T00:01:13;33.30;;;20.70;;
68995;SDS011;56056;48.990;12.146;2022-08-21T00:03:41;34.42;;;20.35;;
68995;SDS011;56056;48.990;12.146;2022-08-21T00:06:07;33.92;;;21.25;;
68995;SDS011;56056;48.990;12.146;2022-08-21T00:08:33;32.25;;;20.42;;
68995;SDS011;56056;48.990;12.146;2022-08-21T00:10:59;34.72;;;21.35;;
68995;SDS011;56056;48.990;12.146;2022-08-21T00:13:24;35.78;;;21.38;;
68995;SDS011;56056;48.990;12.146;2022-08-21T00:15:52;32.75;;;19.98;;
68995;SDS011;56056;48.990;12.146;2022-08-21T00:18:18;34.75;;;20.20;;
68995;SDS011;56056;48.990;12.146;2022-08-21T00:20:44;37.78;;;20.25;;
68995;SDS011;56056;48.990;12.146;2022-08-21T00:23:11;30.67;;;19.67;;
68995;SDS011;56056;48.990;12.146;2022-08-21T00:25:38;34.65;;;19.70;;
68995;SDS011;56056;48.990;12.146;2022-08-21T00:28:04;32.80;;;20.10;;
68995;SDS011;56056;48.990;12.146;2022-08-21T00:30:31;25.63;;;18.42;;
68995;SDS011;56056;48.990;12.146;2022-08-21T00:32:59;30.05;;;19.33;;
68995;SDS011;56056;48.990;12.146;2022-08-21T00:35:26;29.52;;;19.30;;
68995;SDS011;56056;48.990;12.146;2022-08-21T00:37:53;29.55;;;18.48;;
68995;SDS011;56056;48.990;12.146;2022-08-21T00:40:20;31.80;;;19.17;;
68995;SDS011;56056;48.990;12.146;2022-08-21T00:42:48;32.13;;;19.27;;
68995;SDS011;56056;48.990;12.146;2022-08-21T00:45:15;33.88;;;19.10;;
68995;SDS011;56056;48.990;12.146;2022-08-21T00:47:41;33.05;;;19.40;;
68995;SDS011;56056;48.990;12.146;2022-08-21T00:50:08;31.77;;;19.45;;
68995;SDS011;56056;48.990;12.146;2022-08-21T00:52:35;34.05;;;19.25;;
68995;SDS011;56056;48.990;12.146;2022-08-21T00:55:02;31.52;;;18.58;;
68995;SDS011;56056;48.990;12.146;2022-08-21T00:57:30;30.70;;;17.92;;
68995;SDS011;56056;48.990;12.146;2022-08-21T00:59:58;27.77;;;17.92;;
68995;SDS011;56056;48.990;12.146;2022-08-21T01:02:26;31.98;;;19.33;;
68995;SDS011;56056;48.990;12.146;2022-08-21T01:04:52;32.20;;;20.48;;
68995;SDS011;56056;48.990;12.146;2022-08-21T01:07:19;33.75;;;19.55;;
68995;SDS011;56056;48.990;12.146;2022-08-21T01:09:45;29.30;;;17.70;;
68995;SDS011;56056;48.990;12.146;2022-08-21T01:12:11;30.20;;;18.77;;
68995;SDS011;56056;48.990;12.146;2022-08-21T01:14:38;30.45;;;18.35;;
68995;SDS011;56056;48.990;12.146;2022-08-21T01:17:06;31.23;;;18.92;;
68995;SDS011;56056;48.990;12.146;2022-08-21T01:19:33;31.00;;;18.75;;
68995;SDS011;56056;48.990;12.146;2022-08-21T01:22:00;32.55;;;19.17;;
68995;SDS011;56056;48.990;12.146;2022-08-21T01:24:27;26.75;;;17.33;;
68995;SDS011;56056;48.990;12.146;2022-08-21T01:26:52;28.20;;;17.25;;
68995;SDS011;56056;48.990;12.146;2022-08-21T01:29:23;26.05;;;17.20;;
68995;SDS011;56056;48.990;12.146;2022-08-21T01:31:52;30.42;;;18.13;;
68995;SDS011;56056;48.990;12.146;2022-08-21T01:34:18;29.85;;;18.13;;
68995;SDS011;56056;48.990;12.146;2022-08-21T01:36:44;30.08;;;18.55;;
68995;SDS011;56056;48.990;12.146;2022-08-21T01:39:12;29.67;;;18.23;;
68995;SDS011;56056;48.990;12.146;2022-08-21T01:41:38;31.35;;;17.73;;
68995;SDS011;56056;48.990;12.146;2022-08-21T01:44:04;29.23;;;17.55;;
68995;SDS011;56056;48.990;12.146;2022-08-21T01:46:30;27.83;;;17.23;;
68995;SDS011;56056;48.990;12.146;2022-08-21T01:48:55;30.13;;;18.17;;
68995;SDS011;56056;48.990;12.146;2022-08-21T01:51:21;30.48;;;17.58;;
68995;SDS011;56056;48.990;12.146;2022-08-21T01:53:47;30.90;;;18.10;;
68995;SDS011;56056;48.990;12.146;2022-08-21T01:56:15;31.80;;;17.83;;
68995;SDS011;56056;48.990;12.146;2022-08-21T01:58:42;35.30;;;16.92;;
68995;SDS011;56056;48.990;12.146;2022-08-21T02:01:09;28.15;;;17.38;;
68995;SDS011;56056;48.990;12.146;2022-08-21T02:03:35;31.58;;;17.42;;
68995;SDS011;56056;48.990;12.146;2022-08-21T02:06:01;25.00;;;15.30;;
68995;SDS011;56056;48.990;12.146;2022-08-21T02:08:27;21.88;;;15.73;;
68995;SDS011;56056;48.990;12.146;2022-08-21T02:10:53;21.52;;;14.75;;
68995;SDS011;56056;48.990;12.146;2022-08-21T02:13:20;24.98;;;14.88;;
68995;SDS011;56056;48.990;12.146;2022-08-21T02:15:45;20.73;;;14.50;;
68995;SDS011;56056;48.990;12.146;2022-08-21T02:18:11;25.73;;;15.70;;
68995;SDS011;56056;48.990;12.146;2022-08-21T02:20:38;25.83;;;15.30;;
68995;SDS011;56056;48.990;12.146;2022-08-21T02:23:06;23.27;;;14.95;;
68995;SDS011;56056;48.990;12.146;2022-08-21T02:25:33;26.98;;;15.00;;
68995;SDS011;56056;48.990;12.146;2022-08-21T02:27:59;20.05;;;13.40;;
68995;SDS011;56056;48.990;12.146;2022-08-21T02:30:31;20.67;;;13.93;;
68995;SDS011;56056;48.990;12.146;2022-08-21T02:32:58;25.55;;;15.50;;
68995;SDS011;56056;48.990;12.146;2022-08-21T02:35:24;27.63;;;16.20;;
68995;SDS011;56056;48.990;12.146;2022-08-21T02:37:50;29.17;;;16.30;;
68995;SDS011;56056;48.990;12.146;2022-08-21T02:40:18;28.02;;;16.65;;
68995;SDS011;56056;48.990;12.146;2022-08-21T02:42:45;23.48;;;15.75;;
68995;SDS011;56056;48.990;12.146;2022-08-21T02:45:11;21.88;;;14.70;;
68995;SDS011;56056;48.990;12.146;2022-08-21T02:47:39;24.52;;;15.40;;
68995;SDS011;56056;48.990;12.146;2022-08-21T02:50:05;36.45;;;18.05;;
68995;SDS011;56056;48.990;12.146;2022-08-21T02:52:32;40.00;;;17.77;;
68995;SDS011;56056;48.990;12.146;2022-08-21T02:54:58;35.95;;;18.58;;
68995;SDS011;56056;48.990;12.146;2022-08-21T02:57:24;55.55;;;18.58;;
68995;SDS011;56056;48.990;12.146;2022-08-21T02:59:50;54.38;;;19.25;;
68995;SDS011;56056;48.990;12.146;2022-08-21T03:02:15;46.95;;;19.60;;
68995;SDS011;56056;48.990;12.146;2022-08-21T03:04:42;99.20;;;19.85;;
68995;SDS011;56056;48.990;12.146;2022-08-21T03:07:08;120.53;;;20.95;;
68995;SDS011;56056;48.990;12.146;2022-08-21T03:09:34;85.07;;;19.08;;
68995;SDS011;56056;48.990;12.146;2022-08-21T03:11:59;50.35;;;19.00;;
68995;SDS011;56056;48.990;12.146;2022-08-21T03:14:25;87.03;;;20.48;;
68995;SDS011;56056;48.990;12.146;2022-08-21T03:16:50;75.43;;;20.67;;
68995;SDS011;56056;48.990;12.146;2022-08-21T03:19:16;85.40;;;21.27;;
68995;SDS011;56056;48.990;12.146;2022-08-21T03:21:43;40.33;;;19.55;;
68995;SDS011;56056;48.990;12.146;2022-08-21T03:24:09;36.95;;;18.15;;
68995;SDS011;56056;48.990;12.146;2022-08-21T03:26:34;73.55;;;19.05;;
68995;SDS011;56056;48.990;12.146;2022-08-21T03:29:00;60.97;;;17.75;;
68995;SDS011;56056;48.990;12.146;2022-08-21T03:31:26;49.13;;;18.88;;
68995;SDS011;56056;48.990;12.146;2022-08-21T03:33:55;36.50;;;17.65;;
68995;SDS011;56056;48.990;12.146;2022-08-21T03:36:21;32.38;;;17.10;;
68995;SDS011;56056;48.990;12.146;2022-08-21T03:38:48;44.70;;;17.40;;
68995;SDS011;56056;48.990;12.146;2022-08-21T03:41:14;32.58;;;16.30;;
68995;SDS011;56056;48.990;12.146;2022-08-21T03:43:40;50.88;;;18.52;;
68995;SDS011;56056;48.990;12.146;2022-08-21T03:46:05;48.45;;;18.13;;
68995;SDS011;56056;48.990;12.146;2022-08-21T03:48:32;38.90;;;17.38;;
68995;SDS011;56056;48.990;12.146;2022-08-21T03:50:58;60.40;;;19.50;;
68995;SDS011;56056;48.990;12.146;2022-08-21T03:53:24;59.33;;;18.20;;
68995;SDS011;56056;48.990;12.146;2022-08-21T03:55:51;55.13;;;17.95;;
68995;SDS011;56056;48.990;12.146;2022-08-21T03:58:19;45.28;;;18.45;;
68995;SDS011;56056;48.990;12.146;2022-08-21T04:00:46;32.75;;;17.67;;
68995;SDS011;56056;48.990;12.146;2022-08-21T04:03:14;41.28;;;16.85;;
68995;SDS011;56056;48.990;12.146;2022-08-21T04:05:40;39.28;;;16.30;;
68995;SDS011;56056;48.990;12.146;2022-08-21T04:08:06;35.58;;;15.95;;
68995;SDS011;56056;48.990;12.146;2022-08-21T04:10:33;18.77;;;13.45;;
68995;SDS011;56056;48.990;12.146;2022-08-21T04:13:02;18.90;;;13.07;;
68995;SDS011;56056;48.990;12.146;2022-08-21T04:15:28;16.48;;;13.40;;
68995;SDS011;56056;48.990;12.146;2022-08-21T04:17:54;19.85;;;13.35;;
68995;SDS011;56056;48.990;12.146;2022-08-21T04:20:20;18.55;;;12.70;;
68995;SDS011;56056;48.990;12.146;2022-08-21T04:22:46;15.07;;;11.70;;
68995;SDS011;56056;48.990;12.146;2022-08-21T04:25:13;15.18;;;11.80;;
68995;SDS011;56056;48.990;12.146;2022-08-21T04:27:39;13.50;;;11.05;;
68995;SDS011;56056;48.990;12.146;2022-08-21T04:30:10;15.77;;;12.00;;
68995;SDS011;56056;48.990;12.146;2022-08-21T04:32:36;15.63;;;12.13;;
68995;SDS011;56056;48.990;12.146;2022-08-21T04:35:04;16.13;;;11.98;;
68995;SDS011;56056;48.990;12.146;2022-08-21T04:37:31;15.38;;;11.68;;
68995;SDS011;56056;48.990;12.146;2022-08-21T04:39:57;15.65;;;12.18;;
68995;SDS011;56056;48.990;12.146;2022-08-21T04:42:23;15.77;;;12.52;;
68995;SDS011;56056;48.990;12.146;2022-08-21T04:44:49;13.88;;;10.98;;
68995;SDS011;56056;48.990;12.146;2022-08-21T04:47:16;13.35;;;11.63;;
68995;SDS011;56056;48.990;12.146;2022-08-21T04:49:42;17.25;;;11.90;;
68995;SDS011;56056;48.990;12.146;2022-08-21T04:52:07;15.10;;;11.75;;
68995;SDS011;56056;48.990;12.146;2022-08-21T04:54:33;13.90;;;11.23;;
68995;SDS011;56056;48.990;12.146;2022-08-21T04:56:59;13.05;;;11.38;;
68995;SDS011;56056;48.990;12.146;2022-08-21T04:59:30;18.25;;;11.57;;
68995;SDS011;56056;48.990;12.146;2022-08-21T05:01:59;14.55;;;11.55;;
68995;SDS011;56056;48.990;12.146;2022-08-21T05:04:27;13.35;;;11.60;;
68995;SDS011;56056;48.990;12.146;2022-08-21T05:06:56;14.52;;;12.57;;
68995;SDS011;56056;48.990;12.146;2022-08-21T05:09:22;13.77;;;11.65;;
68995;SDS011;56056;48.990;12.146;2022-08-21T05:11:48;14.20;;;11.98;;
68995;SDS011;56056;48.990;12.146;2022-08-21T05:14:15;14.15;;;12.75;;
68995;SDS011;56056;48.990;12.146;2022-08-21T05:16:41;15.90;;;13.27;;
68995;SDS011;56056;48.990;12.146;2022-08-21T05:19:08;13.63;;;12.30;;
68995;SDS011;56056;48.990;12.146;2022-08-21T05:21:36;16.48;;;13.13;;
68995;SDS011;56056;48.990;12.146;2022-08-21T05:24:04;16.65;;;13.27;;
68995;SDS011;56056;48.990;12.146;2022-08-21T05:26:30;16.08;;;13.55;;
68995;SDS011;56056;48.990;12.146;2022-08-21T05:28:56;15.77;;;12.98;;
68995;SDS011;56056;48.990;12.146;2022-08-21T05:31:22;18.08;;;13.63;;
68995;SDS011;56056;48.990;12.146;2022-08-21T05:33:47;17.48;;;13.57;;
68995;SDS011;56056;48.990;12.146;2022-08-21T05:36:13;19.00;;;14.98;;
68995;SDS011;56056;48.990;12.146;2022-08-21T05:38:40;20.30;;;14.50;;
68995;SDS011;56056;48.990;12.146;2022-08-21T05:41:06;18.40;;;14.35;;
68995;SDS011;56056;48.990;12.146;2022-08-21T05:43:32;16.90;;;14.55;;
68995;SDS011;56056;48.990;12.146;2022-08-21T05:46:01;20.60;;;13.68;;
68995;SDS011;56056;48.990;12.146;2022-08-21T05:48:26;17.25;;;13.13;;
68995;SDS011;56056;48.990;12.146;2022-08-21T05:50:52;16.73;;;13.27;;
68995;SDS011;56056;48.990;12.146;2022-08-21T05:53:19;15.48;;;12.88;;
68995;SDS011;56056;48.990;12.146;2022-08-21T05:55:47;15.07;;;13.25;;
68995;SDS011;56056;48.990;12.146;2022-08-21T05:58:14;15.35;;;12.13;;
68995;SDS011;56056;48.990;12.146;2022-08-21T06:00:40;12.60;;;11.40;;
68995;SDS011;56056;48.990;12.146;2022-08-21T06:03:10;12.32;;;11.07;;
68995;SDS011;56056;48.990;12.146;2022-08-21T06:05:36;11.35;;;10.32;;
68995;SDS011;56056;48.990;12.146;2022-08-21T06:08:02;11.93;;;10.73;;
68995;SDS011;56056;48.990;12.146;2022-08-21T06:10:28;11.98;;;10.77;;
68995;SDS011;56056;48.990;12.146;2022-08-21T06:12:55;12.63;;;10.55;;
68995;SDS011;56056;48.990;12.146;2022-08-21T06:15:21;12.20;;;11.00;;
68995;SDS011;56056;48.990;12.146;2022-08-21T06:17:47;11.68;;;10.57;;
68995;SDS011;56056;48.990;12.146;2022-08-21T06:20:12;13.82;;;11.10;;
68995;SDS011;56056;48.990;12.146;2022-08-21T06:22:38;12.27;;;10.98;;
68995;SDS011;56056;48.990;12.146;2022-08-21T06:25:04;11.65;;;10.45;;
68995;SDS011;56056;48.990;12.146;2022-08-21T06:27:30;11.93;;;10.88;;
68995;SDS011;56056;48.990;12.146;2022-08-21T06:29:57;12.07;;;10.90;;
68995;SDS011;56056;48.990;12.146;2022-08-21T06:32:23;12.55;;;11.35;;
68995;SDS011;56056;48.990;12.146;2022-08-21T06:34:48;12.65;;;11.45;;
68995;SDS011;56056;48.990;12.146;2022-08-21T06:37:14;11.60;;;10.43;;
68995;SDS011;56056;48.990;12.146;2022-08-21T06:39:40;12.05;;;10.95;;
68995;SDS011;56056;48.990;12.146;2022-08-21T06:42:05;11.90;;;10.80;;
68995;SDS011;56056;48.990;12.146;2022-08-21T06:44:31;12.82;;;11.10;;
68995;SDS011;56056;48.990;12.146;2022-08-21T06:46:58;14.10;;;12.65;;
68995;SDS011;56056;48.990;12.146;2022-08-21T06:49:24;12.15;;;11.00;;
68995;SDS011;56056;48.990;12.146;2022-08-21T06:51:49;12.75;;;11.50;;
68995;SDS011;56056;48.990;12.146;2022-08-21T06:54:15;12.73;;;11.27;;
68995;SDS011;56056;48.990;12.146;2022-08-21T06:56:41;12.85;;;11.63;;
68995;SDS011;56056;48.990;12.146;2022-08-21T06:59:06;12.30;;;11.00;;
68995;SDS011;56056;48.990;12.146;2022-08-21T07:01:32;14.70;;;11.57;;
68995;SDS011;56056;48.990;12.146;2022-08-21T07:03:59;12.73;;;11.43;;
68995;SDS011;56056;48.990;12.146;2022-08-21T07:06:25;12.60;;;11.27;;
68995;SDS011;56056;48.990;12.146;2022-08-21T07:08:50;13.30;;;12.02;;
68995;SDS011;56056;48.990;12.146;2022-08-21T07:11:16;12.77;;;11.10;;
68995;SDS011;56056;48.990;12.146;2022-08-21T07:13:43;12.07;;;10.98;;
68995;SDS011;56056;48.990;12.146;2022-08-21T07:16:09;11.90;;;10.80;;
68995;SDS011;56056;48.990;12.146;2022-08-21T07:18:35;13.27;;;11.98;;
68995;SDS011;56056;48.990;12.146;2022-08-21T07:21:02;12.90;;;11.52;;
68995;SDS011;56056;48.990;12.146;2022-08-21T07:23:29;12.48;;;11.38;;
68995;SDS011;56056;48.990;12.146;2022-08-21T07:25:56;12.18;;;10.85;;
68995;SDS011;56056;48.990;12.146;2022-08-21T07:28:24;12.52;;;11.23;;
68995;SDS011;56056;48.990;12.146;2022-08-21T07:30:50;12.07;;;10.98;;
68995;SDS011;56056;48.990;12.146;2022-08-21T07:33:16;11.95;;;10.82;;
68995;SDS011;56056;48.990;12.146;2022-08-21T07:35:42;10.95;;;9.90;;
68995;SDS011;56056;48.990;12.146;2022-08-21T07:38:09;11.45;;;10.45;;
68995;SDS011;56056;48.990;12.146;2022-08-21T07:40:35;12.20;;;11.10;;
68995;SDS011;56056;48.990;12.146;2022-08-21T07:43:01;54.72;;;47.90;;
68995;SDS011;56056;48.990;12.146;2022-08-21T07:45:26;11.57;;;10.48;;
68995;SDS011;56056;48.990;12.146;2022-08-21T07:47:52;13.50;;;11.65;;
68995;SDS011;56056;48.990;12.146;2022-08-21T07:50:18;13.50;;;12.30;;
68995;SDS011;56056;48.990;12.146;2022-08-21T07:52:44;12.35;;;11.25;;
68995;SDS011;56056;48.990;12.146;2022-08-21T07:55:12;11.93;;;10.82;;
68995;SDS011;56056;48.990;12.146;2022-08-21T07:57:38;12.60;;;11.43;;
68995;SDS011;56056;48.990;12.146;2022-08-21T08:00:05;12.52;;;11.32;;
68995;SDS011;56056;48.990;12.146;2022-08-21T08:02:32;11.73;;;10.57;;
68995;SDS011;56056;48.990;12.146;2022-08-21T08:04:58;12.32;;;11.13;;
68995;SDS011;56056;48.990;12.146;2022-08-21T08:07:24;12.52;;;11.40;;
68995;SDS011;56056;48.990;12.146;2022-08-21T08:09:51;11.88;;;10.80;;
68995;SDS011;56056;48.990;12.146;2022-08-21T08:12:18;11.77;;;10.68;;
68995;SDS011;56056;48.990;12.146;2022-08-21T08:14:44;11.85;;;10.65;;
68995;SDS011;56056;48.990;12.146;2022-08-21T08:17:10;12.35;;;11.23;;
68995;SDS011;56056;48.990;12.146;2022-08-21T08:19:36;11.55;;;10.55;;
68995;SDS011;56056;48.990;12.146;2022-08-21T08:22:01;12.18;;;11.07;;
68995;SDS011;56056;48.990;12.146;2022-08-21T08:24:37;11.43;;;10.52;;
68995;SDS011;56056;48.990;12.146;2022-08-21T08:27:03;11.77;;;10.77;;
68995;SDS011;56056;48.990;12.146;2022-08-21T08:29:30;12.48;;;11.38;;
68995;SDS011;56056;48.990;12.146;2022-08-21T08:31:56;13.40;;;12.20;;
68995;SDS011;56056;48.990;12.146;2022-08-21T08:34:22;13.55;;;12.25;;
68995;SDS011;56056;48.990;12.146;2022-08-21T08:36:48;14.20;;;12.70;;
68995;SDS011;56056;48.990;12.146;2022-08-21T08:39:14;12.80;;;11.70;;
68995;SDS011;56056;48.990;12.146;2022-08-21T08:41:39;13.65;;;12.45;;
68995;SDS011;56056;48.990;12.146;2022-08-21T08:44:06;14.80;;;13.40;;
68995;SDS011;56056;48.990;12.146;2022-08-21T08:46:35;17.42;;;15.88;;
68995;SDS011;56056;48.990;12.146;2022-08-21T08:49:06;12.10;;;11.10;;
68995;SDS011;56056;48.990;12.146;2022-08-21T08:51:34;13.10;;;11.90;;
68995;SDS011;56056;48.990;12.146;2022-08-21T08:54:06;13.65;;;12.45;;
68995;SDS011;56056;48.990;12.146;2022-08-21T08:56:35;12.82;;;11.60;;
68995;SDS011;56056;48.990;12.146;2022-08-21T08:59:02;12.93;;;11.82;;
68995;SDS011;56056;48.990;12.146;2022-08-21T09:01:31;14.48;;;13.27;;
68995;SDS011;56056;48.990;12.146;2022-08-21T09:03:58;14.98;;;13.20;;
68995;SDS011;56056;48.990;12.146;2022-08-21T09:06:34;13.63;;;12.52;;
68995;SDS011;56056;48.990;12.146;2022-08-21T09:09:08;12.80;;;11.60;;
68995;SDS011;56056;48.990;12.146;2022-08-21T09:11:41;13.75;;;12.48;;
68995;SDS011;56056;48.990;12.146;2022-08-21T09:14:13;12.57;;;11.48;;
68995;SDS011;56056;48.990;12.146;2022-08-21T09:16:46;13.50;;;12.23;;
68995;SDS011;56056;48.990;12.146;2022-08-21T09:19:22;12.65;;;11.55;;
68995;SDS011;56056;48.990;12.146;2022-08-21T09:21:58;12.07;;;10.85;;
68995;SDS011;56056;48.990;12.146;2022-08-21T09:24:29;12.52;;;11.43;;
68995;SDS011;56056;48.990;12.146;2022-08-21T09:27:00;13.73;;;12.50;;
68995;SDS011;56056;48.990;12.146;2022-08-21T09:29:28;13.35;;;12.13;;
68995;SDS011;56056;48.990;12.146;2022-08-21T09:31:56;13.02;;;12.02;;
68995;SDS011;56056;48.990;12.146;2022-08-21T09:34:28;13.80;;;12.50;;
68995;SDS011;56056;48.990;12.146;2022-08-21T09:36:56;15.35;;;13.95;;
68995;SDS011;56056;48.990;12.146;2022-08-21T09:39:23;15.15;;;13.75;;
68995;SDS011;56056;48.990;12.146;2022-08-21T09:41:54;13.55;;;12.35;;
68995;SDS011;56056;48.990;12.146;2022-08-21T09:44:24;14.73;;;13.32;;
68995;SDS011;56056;48.990;12.146;2022-08-21T09:46:52;13.80;;;12.52;;
68995;SDS011;56056;48.990;12.146;2022-08-21T09:49:27;13.75;;;12.55;;
68995;SDS011;56056;48.990;12.146;2022-08-21T09:51:53;13.98;;;12.77;;
68995;SDS011;56056;48.990;12.146;2022-08-21T09:54:28;13.60;;;12.50;;
68995;SDS011;56056;48.990;12.146;2022-08-21T09:56:57;14.85;;;13.63;;
68995;SDS011;56056;48.990;12.146;2022-08-21T09:59:42;16.00;;;14.60;;
68995;SDS011;56056;48.990;12.146;2022-08-21T10:02:23;15.45;;;14.05;;
68995;SDS011;56056;48.990;12.146;2022-08-21T10:04:54;18.88;;;17.20;;
68995;SDS011;56056;48.990;12.146;2022-08-21T10:07:23;14.35;;;13.13;;
68995;SDS011;56056;48.990;12.146;2022-08-21T10:10:04;14.55;;;13.45;;
68995;SDS011;56056;48.990;12.146;2022-08-21T10:12:34;14.13;;;12.93;;
68995;SDS011;56056;48.990;12.146;2022-08-21T10:15:07;14.48;;;13.25;;
68995;SDS011;56056;48.990;12.146;2022-08-21T10:17:41;15.13;;;13.93;;
68995;SDS011;56056;48.990;12.146;2022-08-21T10:20:11;15.07;;;13.88;;
68995;SDS011;56056;48.990;12.146;2022-08-21T10:22:42;16.30;;;15.00;;
68995;SDS011;56056;48.990;12.146;2022-08-21T10:25:14;14.85;;;13.73;;
68995;SDS011;56056;48.990;12.146;2022-08-21T10:27:45;14.93;;;13.82;;
68995;SDS011;56056;48.990;12.146;2022-08-21T10:30:17;15.52;;;14.15;;
68995;SDS011;56056;48.990;12.146;2022-08-21T10:32:53;15.88;;;14.70;;
68995;SDS011;56056;48.990;12.146;2022-08-21T10:35:39;14.40;;;13.30;;
68995;SDS011;56056;48.990;12.146;2022-08-21T10:38:32;15.95;;;14.75;;
68995;SDS011;56056;48.990;12.146;2022-08-21T10:41:13;14.20;;;13.10;;
68995;SDS011;56056;48.990;12.146;2022-08-21T10:43:45;14.90;;;13.55;;
68995;SDS011;56056;48.990;12.146;2022-08-21T10:46:16;16.02;;;14.75;;
68995;SDS011;56056;48.990;12.146;2022-08-21T10:48:47;16.25;;;15.05;;
68995;SDS011;56056;48.990;12.146;2022-08-21T10:51:18;15.07;;;13.98;;
68995;SDS011;56056;48.990;12.146;2022-08-21T10:53:55;14.05;;;12.80;;
68995;SDS011;56056;48.990;12.146;2022-08-21T10:56:25;14.13;;;13.13;;
68995;SDS011;56056;48.990;12.146;2022-08-21T10:58:59;14.57;;;13.40;;
68995;SDS011;56056;48.990;12.146;2022-08-21T11:01:33;14.60;;;13.60;;
68995;SDS011;56056;48.990;12.146;2022-08-21T11:04:09;13.98;;;12.95;;
68995;SDS011;56056;48.990;12.146;2022-08-21T11:06:38;13.75;;;12.85;;
68995;SDS011;56056;48.990;12.146;2022-08-21T11:09:09;17.85;;;16.45;;
68995;SDS011;56056;48.990;12.146;2022-08-21T11:11:38;13.02;;;12.13;;
68995;SDS011;56056;48.990;12.146;2022-08-21T11:14:08;12.32;;;11.43;;
68995;SDS011;56056;48.990;12.146;2022-08-21T11:16:40;14.80;;;13.73;;
68995;SDS011;56056;48.990;12.146;2022-08-21T11:19:08;13.40;;;12.50;;
68995;SDS011;56056;48.990;12.146;2022-08-21T11:21:38;11.98;;;11.18;;
68995;SDS011;56056;48.990;12.146;2022-08-21T11:26:57;14.10;;;13.10;;
68995;SDS011;56056;48.990;12.146;2022-08-21T11:29:27;15.60;;;14.48;;
68995;SDS011;56056;48.990;12.146;2022-08-21T11:31:58;15.40;;;14.20;;
68995;SDS011;56056;48.990;12.146;2022-08-21T11:34:37;14.82;;;13.63;;
68995;SDS011;56056;48.990;12.146;2022-08-21T11:37:11;15.68;;;14.43;;
68995;SDS011;56056;48.990;12.146;2022-08-21T11:39:45;13.57;;;12.57;;
68995;SDS011;56056;48.990;12.146;2022-08-21T11:42:17;12.40;;;11.60;;
68995;SDS011;56056;48.990;12.146;2022-08-21T11:44:49;13.85;;;12.85;;
68995;SDS011;56056;48.990;12.146;2022-08-21T11:47:19;12.55;;;11.65;;
68995;SDS011;56056;48.990;12.146;2022-08-21T11:49:57;12.93;;;12.02;;
68995;SDS011;56056;48.990;12.146;2022-08-21T11:52:33;10.98;;;10.18;;
68995;SDS011;56056;48.990;12.146;2022-08-21T11:55:02;11.55;;;10.60;;
68995;SDS011;56056;48.990;12.146;2022-08-21T11:57:39;12.02;;;11.13;;
68995;SDS011;56056;48.990;12.146;2022-08-21T12:00:10;10.48;;;9.75;;
68995;SDS011;56056;48.990;12.146;2022-08-21T12:02:40;12.13;;;11.32;;
68995;SDS011;56056;48.990;12.146;2022-08-21T12:05:11;11.52;;;10.73;;
68995;SDS011;56056;48.990;12.146;2022-08-21T12:07:47;11.90;;;10.90;;
68995;SDS011;56056;48.990;12.146;2022-08-21T12:10:14;10.98;;;10.18;;
68995;SDS011;56056;48.990;12.146;2022-08-21T12:12:42;12.57;;;11.68;;
68995;SDS011;56056;48.990;12.146;2022-08-21T12:15:14;11.80;;;11.00;;
68995;SDS011;56056;48.990;12.146;2022-08-21T12:17:54;11.75;;;10.95;;
68995;SDS011;56056;48.990;12.146;2022-08-21T12:20:23;11.35;;;10.45;;
68995;SDS011;56056;48.990;12.146;2022-08-21T12:23:04;8.45;;;7.85;;
68995;SDS011;56056;48.990;12.146;2022-08-21T12:25:38;8.65;;;8.15;;
68995;SDS011;56056;48.990;12.146;2022-08-21T12:28:07;10.98;;;10.27;;
68995;SDS011;56056;48.990;12.146;2022-08-21T12:30:34;11.82;;;11.02;;
68995;SDS011;56056;48.990;12.146;2022-08-21T12:33:03;7.43;;;7.03;;
68995;SDS011;56056;48.990;12.146;2022-08-21T12:35:31;7.60;;;7.20;;
68995;SDS011;56056;48.990;12.146;2022-08-21T12:37:59;6.75;;;6.28;;
68995;SDS011;56056;48.990;12.146;2022-08-21T12:40:31;9.02;;;8.43;;
68995;SDS011;56056;48.990;12.146;2022-08-21T12:43:01;9.32;;;8.45;;
68995;SDS011;56056;48.990;12.146;2022-08-21T12:45:28;8.15;;;7.47;;
68995;SDS011;56056;48.990;12.146;2022-08-21T12:47:57;6.93;;;6.53;;
68995;SDS011;56056;48.990;12.146;2022-08-21T12:50:26;7.07;;;6.60;;
68995;SDS011;56056;48.990;12.146;2022-08-21T12:52:58;6.10;;;5.70;;
68995;SDS011;56056;48.990;12.146;2022-08-21T12:55:31;5.28;;;4.97;;
68995;SDS011;56056;48.990;12.146;2022-08-21T12:57:57;5.85;;;5.55;;
68995;SDS011;56056;48.990;12.146;2022-08-21T13:00:24;4.95;;;4.55;;
68995;SDS011;56056;48.990;12.146;2022-08-21T13:02:51;5.85;;;5.40;;
68995;SDS011;56056;48.990;12.146;2022-08-21T13:05:19;5.43;;;5.00;;
68995;SDS011;56056;48.990;12.146;2022-08-21T13:07:53;4.60;;;4.30;;
68995;SDS011;56056;48.990;12.146;2022-08-21T13:10:20;4.85;;;4.57;;
68995;SDS011;56056;48.990;12.146;2022-08-21T13:12:48;4.75;;;4.45;;
68995;SDS011;56056;48.990;12.146;2022-08-21T13:15:14;4.75;;;4.47;;
68995;SDS011;56056;48.990;12.146;2022-08-21T13:17:48;4.68;;;4.28;;
68995;SDS011;56056;48.990;12.146;2022-08-21T13:20:18;4.15;;;3.95;;
68995;SDS011;56056;48.990;12.146;2022-08-21T13:22:45;4.30;;;4.10;;
68995;SDS011;56056;48.990;12.146;2022-08-21T13:25:12;4.85;;;4.55;;
68995;SDS011;56056;48.990;12.146;2022-08-21T13:27:38;6.78;;;6.38;;
68995;SDS011;56056;48.990;12.146;2022-08-21T13:30:11;4.45;;;4.15;;
68995;SDS011;56056;48.990;12.146;2022-08-21T13:32:41;4.15;;;3.95;;
68995;SDS011;56056;48.990;12.146;2022-08-21T13:35:09;3.83;;;3.63;;
68995;SDS011;56056;48.990;12.146;2022-08-21T13:37:38;4.40;;;4.20;;
68995;SDS011;56056;48.990;12.146;2022-08-21T13:40:06;4.20;;;4.00;;
68995;SDS011;56056;48.990;12.146;2022-08-21T13:42:34;4.65;;;4.35;;
68995;SDS011;56056;48.990;12.146;2022-08-21T13:45:00;4.13;;;3.92;;
68995;SDS011;56056;48.990;12.146;2022-08-21T13:47:27;4.25;;;4.05;;
68995;SDS011;56056;48.990;12.146;2022-08-21T13:49:53;4.32;;;4.13;;
68995;SDS011;56056;48.990;12.146;2022-08-21T13:52:20;3.63;;;3.53;;
68995;SDS011;56056;48.990;12.146;2022-08-21T13:54:52;4.53;;;4.10;;
68995;SDS011;56056;48.990;12.146;2022-08-21T13:57:19;4.07;;;3.88;;
68995;SDS011;56056;48.990;12.146;2022-08-21T13:59:50;4.43;;;4.10;;
68995;SDS011;56056;48.990;12.146;2022-08-21T14:02:17;4.68;;;4.28;;
68995;SDS011;56056;48.990;12.146;2022-08-21T14:04:48;4.70;;;4.40;;
68995;SDS011;56056;48.990;12.146;2022-08-21T14:07:17;4.35;;;4.15;;
68995;SDS011;56056;48.990;12.146;2022-08-21T14:09:44;4.13;;;3.83;;
68995;SDS011;56056;48.990;12.146;2022-08-21T14:12:12;4.43;;;4.13;;
68995;SDS011;56056;48.990;12.146;2022-08-21T14:14:39;4.45;;;4.25;;
68995;SDS011;56056;48.990;12.146;2022-08-21T14:17:06;4.25;;;4.05;;
68995;SDS011;56056;48.990;12.146;2022-08-21T14:19:38;4.25;;;3.95;;
68995;SDS011;56056;48.990;12.146;2022-08-21T14:25:07;4.38;;;4.18;;